sensor_id;sensor_type;location;lat;lon;timestamp;pressure;altitude;pressure_sealevel;temperature;humidity
13387;BME280;6763;48.524;9.044;2022-09-09T00:00:18;97469.78;;;17.88;54.37
13387;BME280;6763;48.524;9.044;2022-09-09T00:08:18;97453.81;;;17.92;54.30
13387;BME280;6763;48.524;9.044;2022-09-09T00:10:45;97451.97;;;17.94;54.22
13387;BME280;6763;48.524;9.044;2022-09-09T00:13:31;97448.50;;;17.94;54.59
13387;BME280;6763;48.524;9.044;2022-09-09T00:21:42;97451.38;;;17.89;55.13
13387;BME280;6763;48.524;9.044;2022-09-09T00:24:28;97440.91;;;17.89;55.16
13387;BME280;6763;48.524;9.044;2022-09-09T00:27:19;97438.34;;;17.88;54.56
13387;BME280;6763;48.524;9.044;2022-09-09T00:32:45;97455.50;;;17.93;54.79
13387;BME280;6763;48.524;9.044;2022-09-09T00:37:41;97453.75;;;17.94;54.73
13387;BME280;6763;48.524;9.044;2022-09-09T00:40:41;97454.75;;;17.91;54.89
13387;BME280;6763;48.524;9.044;2022-09-09T00:49:04;97444.44;;;17.88;54.84
13387;BME280;6763;48.524;9.044;2022-09-09T00:54:28;97449.69;;;17.88;54.53
13387;BME280;6763;48.524;9.044;2022-09-09T00:57:14;97457.44;;;17.90;54.86
13387;BME280;6763;48.524;9.044;2022-09-09T00:59:50;97444.44;;;17.88;54.68
13387;BME280;6763;48.524;9.044;2022-09-09T01:02:27;97450.59;;;17.87;54.79
13387;BME280;6763;48.524;9.044;2022-09-09T01:05:04;97447.16;;;17.87;54.64
13387;BME280;6763;48.524;9.044;2022-09-09T01:07:32;97454.16;;;17.86;55.10
13387;BME280;6763;48.524;9.044;2022-09-09T01:09:59;97451.53;;;17.86;54.89
13387;BME280;6763;48.524;9.044;2022-09-09T01:12:28;97449.84;;;17.85;55.12
13387;BME280;6763;48.524;9.044;2022-09-09T01:15:15;97446.56;;;17.82;55.02
13387;BME280;6763;48.524;9.044;2022-09-09T01:23:26;97450.25;;;17.78;54.92
13387;BME280;6763;48.524;9.044;2022-09-09T01:26:10;97446.00;;;17.75;55.17
13387;BME280;6763;48.524;9.044;2022-09-09T01:28:40;97444.31;;;17.74;55.13
13387;BME280;6763;48.524;9.044;2022-09-09T01:31:07;97451.34;;;17.74;54.81
13387;BME280;6763;48.524;9.044;2022-09-09T01:33:35;97453.25;;;17.70;54.99
13387;BME280;6763;48.524;9.044;2022-09-09T01:36:06;97446.25;;;17.71;54.97
13387;BME280;6763;48.524;9.044;2022-09-09T01:38:34;97442.78;;;17.70;55.24
13387;BME280;6763;48.524;9.044;2022-09-09T01:41:01;97454.13;;;17.71;55.12
13387;BME280;6763;48.524;9.044;2022-09-09T01:43:27;97461.97;;;17.71;55.25
13387;BME280;6763;48.524;9.044;2022-09-09T01:45:54;97477.66;;;17.71;55.06
13387;BME280;6763;48.524;9.044;2022-09-09T01:48:22;97484.66;;;17.70;55.31
13387;BME280;6763;48.524;9.044;2022-09-09T01:50:48;97476.97;;;17.67;55.23
13387;BME280;6763;48.524;9.044;2022-09-09T01:53:16;97472.69;;;17.66;55.09
13387;BME280;6763;48.524;9.044;2022-09-09T01:56:27;97476.13;;;17.67;55.13
13387;BME280;6763;48.524;9.044;2022-09-09T01:59:22;97476.31;;;17.64;54.97
13387;BME280;6763;48.524;9.044;2022-09-09T02:01:39;97477.28;;;17.61;55.10
13387;BME280;6763;48.524;9.044;2022-09-09T02:06:58;97456.59;;;17.57;55.36
13387;BME280;6763;48.524;9.044;2022-09-09T02:09:26;97455.69;;;17.58;55.18
13387;BME280;6763;48.524;9.044;2022-09-09T02:12:13;97464.53;;;17.55;55.31
13387;BME280;6763;48.524;9.044;2022-09-09T02:14:48;97461.91;;;17.55;55.27
13387;BME280;6763;48.524;9.044;2022-09-09T02:17:21;97472.28;;;17.57;55.41
13387;BME280;6763;48.524;9.044;2022-09-09T02:19:54;97462.75;;;17.56;55.34
13387;BME280;6763;48.524;9.044;2022-09-09T02:22:24;97456.59;;;17.57;55.26
13387;BME280;6763;48.524;9.044;2022-09-09T02:24:52;97457.34;;;17.59;55.36
13387;BME280;6763;48.524;9.044;2022-09-09T02:27:22;97463.38;;;17.61;55.39
13387;BME280;6763;48.524;9.044;2022-09-09T02:29:49;97476.22;;;17.65;55.24
13387;BME280;6763;48.524;9.044;2022-09-09T02:32:19;97473.44;;;17.68;55.37
13387;BME280;6763;48.524;9.044;2022-09-09T02:34:49;97481.03;;;17.73;55.43
13387;BME280;6763;48.524;9.044;2022-09-09T02:37:19;97487.91;;;17.75;55.25
13387;BME280;6763;48.524;9.044;2022-09-09T02:39:46;97479.03;;;17.78;55.50
13387;BME280;6763;48.524;9.044;2022-09-09T02:42:11;97486.88;;;17.78;55.30
13387;BME280;6763;48.524;9.044;2022-09-09T02:44:40;97486.13;;;17.76;55.39
13387;BME280;6763;48.524;9.044;2022-09-09T02:50:04;97469.56;;;17.75;55.15
13387;BME280;6763;48.524;9.044;2022-09-09T02:52:55;97463.56;;;17.73;55.21
13387;BME280;6763;48.524;9.044;2022-09-09T02:55:57;97467.88;;;17.74;55.01
13387;BME280;6763;48.524;9.044;2022-09-09T02:58:24;97470.41;;;17.76;55.13
13387;BME280;6763;48.524;9.044;2022-09-09T03:00:51;97471.09;;;17.79;55.57
13387;BME280;6763;48.524;9.044;2022-09-09T03:03:18;97463.16;;;17.81;55.59
13387;BME280;6763;48.524;9.044;2022-09-09T03:05:45;97459.44;;;17.85;55.35
13387;BME280;6763;48.524;9.044;2022-09-09T03:08:11;97471.47;;;17.89;55.13
13387;BME280;6763;48.524;9.044;2022-09-09T03:10:36;97479.06;;;17.93;55.27
13387;BME280;6763;48.524;9.044;2022-09-09T03:13:02;97472.72;;;17.97;55.22
13387;BME280;6763;48.524;9.044;2022-09-09T03:15:30;97472.41;;;18.04;55.29
13387;BME280;6763;48.524;9.044;2022-09-09T03:17:57;97477.41;;;18.08;54.73
13387;BME280;6763;48.524;9.044;2022-09-09T03:20:24;97478.00;;;18.13;55.24
13387;BME280;6763;48.524;9.044;2022-09-09T03:22:51;97481.31;;;18.17;54.96
13387;BME280;6763;48.524;9.044;2022-09-09T03:25:16;97487.09;;;18.23;55.09
13387;BME280;6763;48.524;9.044;2022-09-09T03:27:41;97485.81;;;18.30;55.08
13387;BME280;6763;48.524;9.044;2022-09-09T03:30:07;97486.31;;;18.37;54.85
13387;BME280;6763;48.524;9.044;2022-09-09T03:32:32;97480.84;;;18.41;54.91
13387;BME280;6763;48.524;9.044;2022-09-09T03:34:58;97483.22;;;18.46;54.91
13387;BME280;6763;48.524;9.044;2022-09-09T03:37:24;97469.81;;;18.52;54.89
13387;BME280;6763;48.524;9.044;2022-09-09T03:39:49;97473.25;;;18.52;54.51
13387;BME280;6763;48.524;9.044;2022-09-09T03:42:15;97472.06;;;18.58;54.51
13387;BME280;6763;48.524;9.044;2022-09-09T03:44:44;97467.41;;;18.63;54.46
13387;BME280;6763;48.524;9.044;2022-09-09T03:47:12;97459.97;;;18.71;54.54
13387;BME280;6763;48.524;9.044;2022-09-09T03:49:38;97460.66;;;18.75;54.32
13387;BME280;6763;48.524;9.044;2022-09-09T03:52:03;97459.63;;;18.77;54.27
13387;BME280;6763;48.524;9.044;2022-09-09T03:54:28;97461.91;;;18.83;54.08
13387;BME280;6763;48.524;9.044;2022-09-09T03:56:54;97462.50;;;18.88;53.89
13387;BME280;6763;48.524;9.044;2022-09-09T03:59:19;97463.09;;;18.93;53.87
13387;BME280;6763;48.524;9.044;2022-09-09T04:01:46;97458.44;;;18.98;53.56
13387;BME280;6763;48.524;9.044;2022-09-09T04:04:12;97467.03;;;19.00;53.38
13387;BME280;6763;48.524;9.044;2022-09-09T04:06:38;97469.56;;;19.02;53.47
13387;BME280;6763;48.524;9.044;2022-09-09T04:09:03;97468.53;;;19.04;53.35
13387;BME280;6763;48.524;9.044;2022-09-09T04:11:28;97463.13;;;19.07;53.28
13387;BME280;6763;48.524;9.044;2022-09-09T04:13:54;97455.19;;;19.09;53.17
13387;BME280;6763;48.524;9.044;2022-09-09T04:16:19;97448.91;;;19.11;53.08
13387;BME280;6763;48.524;9.044;2022-09-09T04:18:45;97450.53;;;19.14;52.97
13387;BME280;6763;48.524;9.044;2022-09-09T04:21:11;97454.75;;;19.16;52.77
13387;BME280;6763;48.524;9.044;2022-09-09T04:23:37;97460.56;;;19.22;52.75
13387;BME280;6763;48.524;9.044;2022-09-09T04:26:03;97462.91;;;19.26;52.69
13387;BME280;6763;48.524;9.044;2022-09-09T04:28:31;97469.66;;;19.30;52.62
13387;BME280;6763;48.524;9.044;2022-09-09T04:31:03;97466.22;;;19.30;52.52
13387;BME280;6763;48.524;9.044;2022-09-09T04:33:29;97465.25;;;19.31;52.36
13387;BME280;6763;48.524;9.044;2022-09-09T04:35:54;97472.22;;;19.32;52.45
13387;BME280;6763;48.524;9.044;2022-09-09T04:38:20;97472.28;;;19.30;52.43
13387;BME280;6763;48.524;9.044;2022-09-09T04:40:48;97467.81;;;19.32;52.37
13387;BME280;6763;48.524;9.044;2022-09-09T04:43:14;97461.03;;;19.28;52.28
13387;BME280;6763;48.524;9.044;2022-09-09T04:45:41;97475.13;;;19.27;52.45
13387;BME280;6763;48.524;9.044;2022-09-09T04:48:07;97468.34;;;19.23;52.46
13387;BME280;6763;48.524;9.044;2022-09-09T04:50:32;97476.47;;;19.18;52.66
13387;BME280;6763;48.524;9.044;2022-09-09T04:53:04;97475.91;;;19.13;52.41
13387;BME280;6763;48.524;9.044;2022-09-09T04:55:31;97470.16;;;19.07;52.80
13387;BME280;6763;48.524;9.044;2022-09-09T04:57:56;97467.78;;;19.02;52.86
13387;BME280;6763;48.524;9.044;2022-09-09T05:00:24;97473.47;;;18.95;53.02
13387;BME280;6763;48.524;9.044;2022-09-09T05:02:50;97471.19;;;18.89;53.01
13387;BME280;6763;48.524;9.044;2022-09-09T05:05:16;97477.56;;;18.85;53.26
13387;BME280;6763;48.524;9.044;2022-09-09T05:07:41;97476.97;;;18.80;53.44
13387;BME280;6763;48.524;9.044;2022-09-09T05:10:07;97486.72;;;18.78;53.49
13387;BME280;6763;48.524;9.044;2022-09-09T05:12:32;97484.31;;;18.73;53.82
13387;BME280;6763;48.524;9.044;2022-09-09T05:14:58;97481.81;;;18.72;53.85
13387;BME280;6763;48.524;9.044;2022-09-09T05:17:23;97483.66;;;18.70;53.47
13387;BME280;6763;48.524;9.044;2022-09-09T05:19:49;97486.19;;;18.71;53.46
13387;BME280;6763;48.524;9.044;2022-09-09T05:22:20;97485.19;;;18.74;53.53
13387;BME280;6763;48.524;9.044;2022-09-09T05:24:48;97477.16;;;18.77;53.55
13387;BME280;6763;48.524;9.044;2022-09-09T05:27:18;97486.50;;;18.81;53.36
13387;BME280;6763;48.524;9.044;2022-09-09T05:29:47;97496.09;;;18.82;53.58
13387;BME280;6763;48.524;9.044;2022-09-09T05:32:13;97497.78;;;18.83;53.51
13387;BME280;6763;48.524;9.044;2022-09-09T05:34:40;97509.09;;;18.83;53.44
13387;BME280;6763;48.524;9.044;2022-09-09T05:37:05;97505.66;;;18.83;53.56
13387;BME280;6763;48.524;9.044;2022-09-09T05:39:31;97497.69;;;18.84;53.46
13387;BME280;6763;48.524;9.044;2022-09-09T05:41:58;97499.28;;;18.87;53.46
13387;BME280;6763;48.524;9.044;2022-09-09T05:44:23;97504.28;;;18.91;53.22
13387;BME280;6763;48.524;9.044;2022-09-09T05:46:52;97500.56;;;18.95;53.16
13387;BME280;6763;48.524;9.044;2022-09-09T05:49:19;97496.81;;;18.99;53.20
13387;BME280;6763;48.524;9.044;2022-09-09T05:51:44;97500.88;;;19.05;53.10
13387;BME280;6763;48.524;9.044;2022-09-09T05:54:10;97505.03;;;19.09;52.93
13387;BME280;6763;48.524;9.044;2022-09-09T05:56:35;97504.00;;;19.11;53.05
13387;BME280;6763;48.524;9.044;2022-09-09T05:59:00;97510.88;;;19.14;52.94
13387;BME280;6763;48.524;9.044;2022-09-09T06:01:28;97506.19;;;19.19;52.79
13387;BME280;6763;48.524;9.044;2022-09-09T06:03:54;97506.66;;;19.26;52.71
13387;BME280;6763;48.524;9.044;2022-09-09T06:06:22;97507.09;;;19.34;52.69
13387;BME280;6763;48.524;9.044;2022-09-09T06:08:50;97513.78;;;19.39;52.45
13387;BME280;6763;48.524;9.044;2022-09-09T06:11:21;97503.00;;;19.44;52.44
13387;BME280;6763;48.524;9.044;2022-09-09T06:13:47;97502.75;;;19.48;52.26
13387;BME280;6763;48.524;9.044;2022-09-09T06:16:17;97501.47;;;19.55;52.20
13387;BME280;6763;48.524;9.044;2022-09-09T06:18:43;97498.56;;;19.60;52.19
13387;BME280;6763;48.524;9.044;2022-09-09T06:21:16;97503.19;;;19.70;51.84
13387;BME280;6763;48.524;9.044;2022-09-09T06:23:42;97507.03;;;19.79;51.94
13387;BME280;6763;48.524;9.044;2022-09-09T06:26:23;97510.81;;;19.89;51.43
13387;BME280;6763;48.524;9.044;2022-09-09T06:28:51;97501.31;;;20.01;51.46
13387;BME280;6763;48.524;9.044;2022-09-09T06:31:19;97496.16;;;20.13;51.37
13387;BME280;6763;48.524;9.044;2022-09-09T06:33:49;97499.00;;;20.24;50.88
13387;BME280;6763;48.524;9.044;2022-09-09T06:36:20;97510.75;;;20.33;50.64
13387;BME280;6763;48.524;9.044;2022-09-09T06:38:46;97504.91;;;20.42;50.48
13387;BME280;6763;48.524;9.044;2022-09-09T06:41:14;97506.88;;;20.53;50.29
13387;BME280;6763;48.524;9.044;2022-09-09T06:43:39;97506.31;;;20.62;50.29
13387;BME280;6763;48.524;9.044;2022-09-09T06:46:08;97503.81;;;20.73;50.12
13387;BME280;6763;48.524;9.044;2022-09-09T06:48:34;97498.66;;;20.85;49.94
13387;BME280;6763;48.524;9.044;2022-09-09T06:51:05;97498.69;;;20.98;49.49
13387;BME280;6763;48.524;9.044;2022-09-09T06:53:34;97497.00;;;21.11;49.46
13387;BME280;6763;48.524;9.044;2022-09-09T06:56:22;97499.66;;;21.24;49.07
13387;BME280;6763;48.524;9.044;2022-09-09T06:58:48;97509.28;;;21.37;48.33
13387;BME280;6763;48.524;9.044;2022-09-09T07:01:16;97513.94;;;21.46;48.22
13387;BME280;6763;48.524;9.044;2022-09-09T07:03:44;97503.41;;;21.59;48.32
13387;BME280;6763;48.524;9.044;2022-09-09T07:06:22;97506.81;;;21.74;47.88
13387;BME280;6763;48.524;9.044;2022-09-09T07:08:53;97505.81;;;21.89;47.34
13387;BME280;6763;48.524;9.044;2022-09-09T07:11:21;97506.75;;;22.00;47.16
13387;BME280;6763;48.524;9.044;2022-09-09T07:13:48;97506.84;;;22.11;47.03
13387;BME280;6763;48.524;9.044;2022-09-09T07:16:16;97502.09;;;22.29;46.69
13387;BME280;6763;48.524;9.044;2022-09-09T07:18:42;97499.44;;;22.42;46.55
13387;BME280;6763;48.524;9.044;2022-09-09T07:21:10;97491.81;;;22.50;46.37
13387;BME280;6763;48.524;9.044;2022-09-09T07:23:37;97495.69;;;22.57;46.55
13387;BME280;6763;48.524;9.044;2022-09-09T07:26:10;97501.53;;;22.62;46.48
13387;BME280;6763;48.524;9.044;2022-09-09T07:28:37;97502.47;;;22.61;46.59
13387;BME280;6763;48.524;9.044;2022-09-09T07:31:04;97512.16;;;22.60;46.74
13387;BME280;6763;48.524;9.044;2022-09-09T07:33:31;97506.03;;;22.60;46.83
13387;BME280;6763;48.524;9.044;2022-09-09T07:36:05;97510.47;;;22.59;47.00
13387;BME280;6763;48.524;9.044;2022-09-09T07:38:33;97513.44;;;22.55;47.12
13387;BME280;6763;48.524;9.044;2022-09-09T07:41:07;97508.38;;;22.52;46.98
13387;BME280;6763;48.524;9.044;2022-09-09T07:43:36;97514.63;;;22.51;46.97
13387;BME280;6763;48.524;9.044;2022-09-09T07:46:02;97518.38;;;22.59;47.04
13387;BME280;6763;48.524;9.044;2022-09-09T07:48:28;97519.47;;;22.69;47.02
13387;BME280;6763;48.524;9.044;2022-09-09T07:51:03;97516.56;;;22.85;46.61
13387;BME280;6763;48.524;9.044;2022-09-09T07:53:29;97523.59;;;22.97;46.42
13387;BME280;6763;48.524;9.044;2022-09-09T07:56:02;97519.47;;;23.06;46.22
13387;BME280;6763;48.524;9.044;2022-09-09T07:58:28;97521.41;;;23.15;46.10
13387;BME280;6763;48.524;9.044;2022-09-09T08:00:53;97527.47;;;23.28;45.83
13387;BME280;6763;48.524;9.044;2022-09-09T08:03:18;97520.50;;;23.39;45.69
13387;BME280;6763;48.524;9.044;2022-09-09T08:05:45;97524.00;;;23.51;45.37
13387;BME280;6763;48.524;9.044;2022-09-09T08:08:10;97525.97;;;23.60;45.27
13387;BME280;6763;48.524;9.044;2022-09-09T08:10:35;97520.22;;;23.66;44.88
13387;BME280;6763;48.524;9.044;2022-09-09T08:13:01;97527.06;;;23.69;44.69
13387;BME280;6763;48.524;9.044;2022-09-09T08:15:26;97527.91;;;23.69;44.76
13387;BME280;6763;48.524;9.044;2022-09-09T08:17:52;97528.31;;;23.76;44.83
13387;BME280;6763;48.524;9.044;2022-09-09T08:20:17;97534.69;;;23.84;44.51
13387;BME280;6763;48.524;9.044;2022-09-09T08:22:43;97537.34;;;23.95;44.17
13387;BME280;6763;48.524;9.044;2022-09-09T08:25:08;97538.00;;;24.10;43.40
13387;BME280;6763;48.524;9.044;2022-09-09T08:27:35;97537.56;;;24.27;43.68
13387;BME280;6763;48.524;9.044;2022-09-09T08:30:00;97535.91;;;24.48;42.71
13387;BME280;6763;48.524;9.044;2022-09-09T08:32:26;97527.78;;;24.72;42.51
13387;BME280;6763;48.524;9.044;2022-09-09T08:34:51;97525.63;;;24.99;41.92
13387;BME280;6763;48.524;9.044;2022-09-09T08:37:16;97529.06;;;25.22;41.65
13387;BME280;6763;48.524;9.044;2022-09-09T08:39:42;97531.19;;;25.39;41.24
13387;BME280;6763;48.524;9.044;2022-09-09T08:42:26;97533.69;;;25.52;41.14
13387;BME280;6763;48.524;9.044;2022-09-09T08:45:03;97531.63;;;25.55;41.01
13387;BME280;6763;48.524;9.044;2022-09-09T08:52:53;97532.47;;;25.45;40.39
13387;BME280;6763;48.524;9.044;2022-09-09T08:58:00;97538.41;;;25.37;40.52
13387;BME280;6763;48.524;9.044;2022-09-09T09:00:42;97532.84;;;25.40;40.19
13387;BME280;6763;48.524;9.044;2022-09-09T09:11:52;97515.63;;;25.77;39.26
13387;BME280;6763;48.524;9.044;2022-09-09T09:14:22;97514.81;;;25.86;39.47
13387;BME280;6763;48.524;9.044;2022-09-09T09:17:04;97505.91;;;26.08;39.02
13387;BME280;6763;48.524;9.044;2022-09-09T09:19:33;97499.22;;;26.34;38.44
13387;BME280;6763;48.524;9.044;2022-09-09T09:22:16;97495.09;;;26.51;36.94
13387;BME280;6763;48.524;9.044;2022-09-09T09:24:52;97497.91;;;26.59;37.00
13387;BME280;6763;48.524;9.044;2022-09-09T09:27:38;97501.28;;;26.61;36.58
13387;BME280;6763;48.524;9.044;2022-09-09T09:30:16;97500.19;;;26.64;36.16
13387;BME280;6763;48.524;9.044;2022-09-09T09:35:16;97489.63;;;26.83;35.98
13387;BME280;6763;48.524;9.044;2022-09-09T09:37:42;97484.63;;;26.99;35.59
13387;BME280;6763;48.524;9.044;2022-09-09T09:40:14;97487.75;;;27.23;35.33
13387;BME280;6763;48.524;9.044;2022-09-09T09:42:52;97485.41;;;27.58;34.77
13387;BME280;6763;48.524;9.044;2022-09-09T09:45:28;97490.00;;;27.85;33.33
13387;BME280;6763;48.524;9.044;2022-09-09T09:48:02;97481.53;;;27.99;32.15
13387;BME280;6763;48.524;9.044;2022-09-09T09:50:28;97476.81;;;27.93;31.45
13387;BME280;6763;48.524;9.044;2022-09-09T09:53:00;97479.19;;;28.06;30.92
13387;BME280;6763;48.524;9.044;2022-09-09T09:55:28;97470.09;;;28.08;30.75
13387;BME280;6763;48.524;9.044;2022-09-09T09:58:06;97473.44;;;28.10;30.96
13387;BME280;6763;48.524;9.044;2022-09-09T10:00:32;97466.69;;;28.16;30.94
13387;BME280;6763;48.524;9.044;2022-09-09T10:03:00;97462.31;;;28.24;30.10
13387;BME280;6763;48.524;9.044;2022-09-09T10:05:29;97472.25;;;28.32;29.53
13387;BME280;6763;48.524;9.044;2022-09-09T10:13:18;97465.44;;;28.84;29.67
13387;BME280;6763;48.524;9.044;2022-09-09T10:35:09;97464.34;;;29.39;28.11
13387;BME280;6763;48.524;9.044;2022-09-09T10:40:45;97451.44;;;29.17;27.56
13387;BME280;6763;48.524;9.044;2022-09-09T10:57:28;97439.09;;;30.21;25.25
13387;BME280;6763;48.524;9.044;2022-09-09T10:59:59;97425.63;;;30.30;24.59
13387;BME280;6763;48.524;9.044;2022-09-09T11:02:30;97426.75;;;30.45;24.47
13387;BME280;6763;48.524;9.044;2022-09-09T11:05:10;97434.97;;;30.26;24.49
13387;BME280;6763;48.524;9.044;2022-09-09T11:07:48;97436.75;;;30.18;25.46
13387;BME280;6763;48.524;9.044;2022-09-09T11:11:26;97451.81;;;29.75;25.09
13387;BME280;6763;48.524;9.044;2022-09-09T11:13:40;97482.25;;;29.29;25.28
13387;BME280;6763;48.524;9.044;2022-09-09T11:18:46;97491.19;;;28.66;28.70
13387;BME280;6763;48.524;9.044;2022-09-09T11:21:34;97499.97;;;28.39;29.50
13387;BME280;6763;48.524;9.044;2022-09-09T11:24:10;97492.34;;;27.98;29.81
13387;BME280;6763;48.524;9.044;2022-09-09T11:26:41;97495.59;;;27.63;30.57
13387;BME280;6763;48.524;9.044;2022-09-09T11:29:21;97497.59;;;27.42;30.76
13387;BME280;6763;48.524;9.044;2022-09-09T11:37:35;97479.34;;;27.85;29.48
13387;BME280;6763;48.524;9.044;2022-09-09T11:40:24;97481.59;;;27.80;28.53
13387;BME280;6763;48.524;9.044;2022-09-09T11:43:46;97478.06;;;27.89;27.74
13387;BME280;6763;48.524;9.044;2022-09-09T11:45:52;97474.41;;;28.09;27.80
13387;BME280;6763;48.524;9.044;2022-09-09T11:51:12;97475.66;;;28.52;26.65
13387;BME280;6763;48.524;9.044;2022-09-09T11:56:53;97472.41;;;28.58;26.79
13387;BME280;6763;48.524;9.044;2022-09-09T11:59:23;97477.31;;;28.62;26.48
13387;BME280;6763;48.524;9.044;2022-09-09T12:02:17;97462.03;;;28.64;26.68
13387;BME280;6763;48.524;9.044;2022-09-09T12:05:04;97473.06;;;28.69;25.94
13387;BME280;6763;48.524;9.044;2022-09-09T12:07:45;97463.75;;;28.56;25.62
13387;BME280;6763;48.524;9.044;2022-09-09T12:10:25;97491.41;;;28.45;26.12
13387;BME280;6763;48.524;9.044;2022-09-09T12:12:51;97482.78;;;28.51;26.09
13387;BME280;6763;48.524;9.044;2022-09-09T12:15:27;97478.56;;;28.68;25.89
13387;BME280;6763;48.524;9.044;2022-09-09T12:17:56;97476.84;;;28.76;26.42
13387;BME280;6763;48.524;9.044;2022-09-09T12:20:34;97493.69;;;28.67;26.44
13387;BME280;6763;48.524;9.044;2022-09-09T12:23:27;97475.19;;;28.56;26.99
13387;BME280;6763;48.524;9.044;2022-09-09T12:36:37;97480.88;;;29.25;25.83
13387;BME280;6763;48.524;9.044;2022-09-09T12:39:22;97468.41;;;29.16;25.55
13387;BME280;6763;48.524;9.044;2022-09-09T12:41:53;97471.50;;;28.76;26.16
13387;BME280;6763;48.524;9.044;2022-09-09T12:44:22;97465.28;;;28.49;26.56
13387;BME280;6763;48.524;9.044;2022-09-09T12:46:48;97470.00;;;28.27;27.37
13387;BME280;6763;48.524;9.044;2022-09-09T12:49:29;97473.03;;;27.96;27.65
13387;BME280;6763;48.524;9.044;2022-09-09T12:51:59;97470.84;;;27.53;28.44
13387;BME280;6763;48.524;9.044;2022-09-09T12:54:25;97458.22;;;27.36;28.91
13387;BME280;6763;48.524;9.044;2022-09-09T12:56:51;97459.38;;;27.24;29.21
13387;BME280;6763;48.524;9.044;2022-09-09T12:59:35;97463.97;;;27.12;29.30
13387;BME280;6763;48.524;9.044;2022-09-09T13:02:01;97460.47;;;27.12;29.18
13387;BME280;6763;48.524;9.044;2022-09-09T13:04:26;97468.00;;;27.06;29.48
13387;BME280;6763;48.524;9.044;2022-09-09T13:06:52;97457.13;;;27.29;29.05
13387;BME280;6763;48.524;9.044;2022-09-09T13:09:18;97457.00;;;27.59;28.64
13387;BME280;6763;48.524;9.044;2022-09-09T13:11:54;97462.97;;;27.80;28.62
13387;BME280;6763;48.524;9.044;2022-09-09T13:14:29;97451.38;;;27.72;28.42
13387;BME280;6763;48.524;9.044;2022-09-09T13:17:00;97445.06;;;27.73;28.50
13387;BME280;6763;48.524;9.044;2022-09-09T13:19:29;97451.47;;;27.89;28.61
13387;BME280;6763;48.524;9.044;2022-09-09T13:21:56;97454.19;;;28.26;28.57
13387;BME280;6763;48.524;9.044;2022-09-09T13:24:30;97440.16;;;28.61;27.90
13387;BME280;6763;48.524;9.044;2022-09-09T13:29:23;97440.06;;;28.80;27.97
13387;BME280;6763;48.524;9.044;2022-09-09T13:31:50;97434.50;;;28.73;27.51
13387;BME280;6763;48.524;9.044;2022-09-09T13:36:55;97437.28;;;28.45;27.41
13387;BME280;6763;48.524;9.044;2022-09-09T13:39:23;97443.19;;;28.39;26.93
13387;BME280;6763;48.524;9.044;2022-09-09T13:41:48;97418.59;;;28.54;26.64
13387;BME280;6763;48.524;9.044;2022-09-09T13:44:18;97441.56;;;28.65;26.55
13387;BME280;6763;48.524;9.044;2022-09-09T13:46:45;97435.66;;;28.61;26.35
13387;BME280;6763;48.524;9.044;2022-09-09T13:51:37;97431.44;;;28.59;25.53
13387;BME280;6763;48.524;9.044;2022-09-09T13:54:04;97426.50;;;28.73;25.41
13387;BME280;6763;48.524;9.044;2022-09-09T13:56:32;97423.66;;;29.02;24.57
13387;BME280;6763;48.524;9.044;2022-09-09T13:58:57;97425.75;;;29.26;24.55
13387;BME280;6763;48.524;9.044;2022-09-09T14:01:23;97415.72;;;29.45;24.34
13387;BME280;6763;48.524;9.044;2022-09-09T14:03:48;97430.03;;;29.62;24.43
13387;BME280;6763;48.524;9.044;2022-09-09T14:06:14;97421.25;;;29.70;24.10
13387;BME280;6763;48.524;9.044;2022-09-09T14:08:39;97418.91;;;29.67;24.13
13387;BME280;6763;48.524;9.044;2022-09-09T14:11:05;97415.69;;;29.63;24.40
13387;BME280;6763;48.524;9.044;2022-09-09T14:13:32;97410.88;;;29.67;24.07
13387;BME280;6763;48.524;9.044;2022-09-09T14:15:57;97408.06;;;29.68;23.90
13387;BME280;6763;48.524;9.044;2022-09-09T14:18:22;97424.00;;;29.60;24.13
13387;BME280;6763;48.524;9.044;2022-09-09T14:20:48;97415.56;;;29.65;23.62
13387;BME280;6763;48.524;9.044;2022-09-09T14:23:15;97405.69;;;29.83;23.07
13387;BME280;6763;48.524;9.044;2022-09-09T14:25:42;97399.41;;;29.92;23.50
13387;BME280;6763;48.524;9.044;2022-09-09T14:28:12;97407.63;;;29.98;22.75
13387;BME280;6763;48.524;9.044;2022-09-09T14:30:42;97405.78;;;29.99;22.64
13387;BME280;6763;48.524;9.044;2022-09-09T14:33:10;97403.94;;;29.74;22.64
13387;BME280;6763;48.524;9.044;2022-09-09T14:35:36;97405.44;;;29.50;22.83
13387;BME280;6763;48.524;9.044;2022-09-09T14:38:03;97400.53;;;29.64;22.68
13387;BME280;6763;48.524;9.044;2022-09-09T14:40:28;97399.25;;;29.76;22.60
13387;BME280;6763;48.524;9.044;2022-09-09T14:42:54;97401.41;;;29.90;22.29
13387;BME280;6763;48.524;9.044;2022-09-09T14:45:20;97397.66;;;30.08;22.41
13387;BME280;6763;48.524;9.044;2022-09-09T14:47:46;97387.53;;;30.20;22.29
13387;BME280;6763;48.524;9.044;2022-09-09T14:50:12;97401.69;;;30.13;22.38
13387;BME280;6763;48.524;9.044;2022-09-09T14:52:37;97415.03;;;30.13;22.57
13387;BME280;6763;48.524;9.044;2022-09-09T14:55:03;97392.66;;;30.05;22.76
13387;BME280;6763;48.524;9.044;2022-09-09T14:57:28;97392.34;;;29.83;22.87
13387;BME280;6763;48.524;9.044;2022-09-09T14:59:54;97410.56;;;29.44;23.14
13387;BME280;6763;48.524;9.044;2022-09-09T15:02:19;97412.91;;;29.12;23.72
13387;BME280;6763;48.524;9.044;2022-09-09T15:04:44;97428.72;;;28.78;23.67
13387;BME280;6763;48.524;9.044;2022-09-09T15:07:10;97411.34;;;28.47;23.96
13387;BME280;6763;48.524;9.044;2022-09-09T15:09:36;97409.19;;;28.33;24.33
13387;BME280;6763;48.524;9.044;2022-09-09T15:12:02;97427.03;;;28.50;23.63
13387;BME280;6763;48.524;9.044;2022-09-09T15:14:28;97428.41;;;28.63;23.30
13387;BME280;6763;48.524;9.044;2022-09-09T15:16:53;97415.25;;;28.52;23.07
13387;BME280;6763;48.524;9.044;2022-09-09T15:19:18;97424.63;;;28.29;23.68
13387;BME280;6763;48.524;9.044;2022-09-09T15:21:44;97421.59;;;28.14;23.46
13387;BME280;6763;48.524;9.044;2022-09-09T15:24:09;97412.13;;;27.93;24.12
13387;BME280;6763;48.524;9.044;2022-09-09T15:26:35;97421.25;;;27.81;24.91
13387;BME280;6763;48.524;9.044;2022-09-09T15:29:03;97416.22;;;27.68;25.30
13387;BME280;6763;48.524;9.044;2022-09-09T15:31:30;97412.19;;;27.64;25.72
13387;BME280;6763;48.524;9.044;2022-09-09T15:34:01;97408.16;;;27.60;25.83